createdAt,value
2022-10-01T00:00:01.346Z,4.60
2022-10-01T00:02:03.122Z,4.85
2022-10-01T00:04:04.895Z,4.78
2022-10-01T00:06:16.049Z,4.75
2022-10-01T00:08:17.811Z,4.88
2022-10-01T00:10:19.512Z,4.22
2022-10-01T00:12:21.245Z,4.90
2022-10-01T00:14:22.977Z,4.78
2022-10-01T00:16:25.788Z,5.13
2022-10-01T00:18:27.512Z,4.70
2022-10-01T00:20:29.191Z,4.78
2022-10-01T00:22:31.307Z,4.63
2022-10-01T00:24:33.207Z,4.80
2022-10-01T00:26:35.649Z,4.57
2022-10-01T00:28:37.359Z,4.70
2022-10-01T00:30:46.341Z,4.45
2022-10-01T00:32:48.034Z,4.72
2022-10-01T00:34:49.769Z,4.68
2022-10-01T00:36:51.486Z,4.88
2022-10-01T00:38:53.267Z,4.72
2022-10-01T00:40:55.448Z,4.30
2022-10-01T00:42:57.201Z,4.80
2022-10-01T00:44:59.058Z,4.28
2022-10-01T00:47:21.859Z,4.03
2022-10-01T00:49:24.998Z,4.38
2022-10-01T00:51:28.107Z,4.30
2022-10-01T00:53:29.842Z,4.45
2022-10-01T00:55:36.523Z,4.20
2022-10-01T00:57:38.458Z,4.43
2022-10-01T00:59:40.107Z,4.53
2022-10-01T01:01:41.845Z,4.45
2022-10-01T01:03:43.685Z,4.50
2022-10-01T01:05:45.443Z,4.45
2022-10-01T01:07:48.207Z,4.55
2022-10-01T01:09:50.231Z,4.80
2022-10-01T01:11:55.474Z,4.78
2022-10-01T01:14:01.682Z,4.40
2022-10-01T01:16:10.137Z,4.90
2022-10-01T01:18:32.949Z,4.45
2022-10-01T01:20:53.101Z,4.65
2022-10-01T01:23:18.444Z,4.20
2022-10-01T01:25:21.332Z,4.47
2022-10-01T01:27:25.849Z,4.82
2022-10-01T01:29:37.502Z,3.97
2022-10-01T01:31:41.035Z,4.38
2022-10-01T01:33:43.622Z,4.40
2022-10-01T01:36:00.043Z,4.60
2022-10-01T01:38:03.683Z,4.28
2022-10-01T01:40:06.267Z,4.18
2022-10-01T01:42:10.712Z,4.45
2022-10-01T01:44:12.432Z,4.75
2022-10-01T01:46:14.739Z,4.35
2022-10-01T01:48:16.529Z,4.30
2022-10-01T01:50:18.328Z,4.43
2022-10-01T01:52:20.092Z,4.32
2022-10-01T01:54:21.789Z,4.25
2022-10-01T01:56:23.439Z,4.07
2022-10-01T01:58:25.197Z,4.03
2022-10-01T02:00:26.921Z,4.70
2022-10-01T02:02:30.454Z,4.70
2022-10-01T02:04:39.640Z,4.10
2022-10-01T02:06:58.104Z,4.22
2022-10-01T02:09:27.925Z,4.28
2022-10-01T02:11:33.089Z,3.92
2022-10-01T02:13:49.192Z,4.43
2022-10-01T02:16:01.499Z,3.92
2022-10-01T02:18:34.331Z,3.92
2022-10-01T02:20:42.279Z,4.30
2022-10-01T02:22:50.698Z,4.00
2022-10-01T02:24:56.556Z,3.90
2022-10-01T02:26:58.669Z,3.80
2022-10-01T02:29:03.415Z,4.15
2022-10-01T02:31:05.331Z,4.20
2022-10-01T02:33:07.431Z,4.13
2022-10-01T02:35:11.381Z,4.00
2022-10-01T02:37:13.115Z,3.90
2022-10-01T02:39:15.641Z,4.10
2022-10-01T02:41:19.892Z,4.05
2022-10-01T02:43:34.104Z,3.80
2022-10-01T02:45:36.104Z,3.95
2022-10-01T02:47:40.608Z,4.22
2022-10-01T02:49:42.440Z,4.13
2022-10-01T02:51:49.562Z,3.67
2022-10-01T02:53:54.652Z,4.20
2022-10-01T02:55:56.669Z,3.67
2022-10-01T02:57:58.306Z,3.58
2022-10-01T03:00:01.389Z,4.00
2022-10-01T03:02:03.979Z,3.42
2022-10-01T03:04:05.754Z,3.78
2022-10-01T03:06:07.516Z,4.03
2022-10-01T03:08:09.196Z,4.20
2022-10-01T03:10:11.518Z,3.70
2022-10-01T03:12:13.167Z,3.72
2022-10-01T03:14:14.866Z,3.45
2022-10-01T03:16:16.647Z,3.72
2022-10-01T03:18:18.449Z,4.03
2022-10-01T03:20:20.512Z,3.83
2022-10-01T03:22:22.739Z,3.78
2022-10-01T03:24:24.503Z,3.80
2022-10-01T03:26:26.234Z,3.75
2022-10-01T03:28:28.120Z,3.58
2022-10-01T03:30:29.776Z,3.53
2022-10-01T03:32:31.944Z,4.03
2022-10-01T03:34:33.652Z,3.70
2022-10-01T03:36:35.362Z,3.78
2022-10-01T03:38:37.091Z,3.88
2022-10-01T03:40:38.783Z,3.70
2022-10-01T03:42:40.485Z,3.72
2022-10-01T03:44:42.398Z,4.00
2022-10-01T03:46:44.215Z,3.47
2022-10-01T03:48:45.961Z,3.67
2022-10-01T03:50:58.316Z,3.88
2022-10-01T03:52:59.966Z,3.58
2022-10-01T03:55:01.691Z,3.65
2022-10-01T03:57:03.369Z,3.55
2022-10-01T03:59:05.089Z,3.65
2022-10-01T04:01:06.787Z,4.13
2022-10-01T04:03:08.640Z,3.65
2022-10-01T04:05:10.384Z,3.33
2022-10-01T04:07:12.123Z,3.47
2022-10-01T04:09:13.831Z,3.60
2022-10-01T04:11:15.543Z,3.83
2022-10-01T04:13:17.436Z,3.60
2022-10-01T04:15:19.149Z,3.65
2022-10-01T04:17:20.820Z,3.88
2022-10-01T04:19:22.510Z,3.42
2022-10-01T04:21:24.160Z,3.30
2022-10-01T04:23:26.293Z,3.65
2022-10-01T04:25:28.277Z,3.40
2022-10-01T04:27:30.238Z,3.83
2022-10-01T04:29:32.702Z,3.42
2022-10-01T04:31:36.702Z,3.50
2022-10-01T04:33:39.174Z,3.30
2022-10-01T04:35:41.377Z,3.67
2022-10-01T04:37:43.250Z,3.33
2022-10-01T04:39:44.956Z,3.70
2022-10-01T04:41:46.634Z,3.28
2022-10-01T04:43:48.365Z,2.97
2022-10-01T04:45:50.226Z,3.30
2022-10-01T04:47:53.233Z,3.00
2022-10-01T04:49:55.202Z,3.70
2022-10-01T04:51:57.019Z,3.58
2022-10-01T04:53:59.045Z,3.28
2022-10-01T04:56:01.202Z,4.07
2022-10-01T04:58:03.405Z,3.67
2022-10-01T05:00:07.121Z,3.88
2022-10-01T05:02:08.869Z,3.33
2022-10-01T05:04:10.714Z,3.72
2022-10-01T05:06:12.520Z,3.30
2022-10-01T05:08:14.267Z,4.40
2022-10-01T05:10:17.953Z,3.60
2022-10-01T05:12:24.279Z,3.55
2022-10-01T05:14:26.371Z,3.60
2022-10-01T05:16:28.145Z,3.80
2022-10-01T05:18:29.851Z,3.08
2022-10-01T05:20:31.491Z,3.30
2022-10-01T05:22:33.221Z,3.47
2022-10-01T05:24:34.887Z,3.40
2022-10-01T05:26:36.593Z,3.30
2022-10-01T05:28:38.810Z,3.03
2022-10-01T05:30:41.731Z,3.03
2022-10-01T05:32:52.960Z,3.20
2022-10-01T05:34:55.366Z,3.17
2022-10-01T05:36:57.108Z,3.03
2022-10-01T05:38:58.815Z,3.33
2022-10-01T05:41:00.586Z,3.22
2022-10-01T05:43:02.314Z,3.15
2022-10-01T05:45:04.179Z,3.13
2022-10-01T05:47:05.897Z,3.45
2022-10-01T05:49:07.598Z,3.30
2022-10-01T05:51:09.276Z,3.15
2022-10-01T05:53:11.607Z,3.05
2022-10-01T05:55:13.364Z,2.90
2022-10-01T05:57:15.099Z,3.17
2022-10-01T05:59:16.858Z,2.90
2022-10-01T06:01:18.595Z,3.00
2022-10-01T06:03:20.432Z,3.15
2022-10-01T06:05:22.233Z,3.45
2022-10-01T06:07:23.921Z,3.30
2022-10-01T06:09:25.652Z,3.05
2022-10-01T06:11:27.366Z,3.03
2022-10-01T06:13:29.223Z,3.38
2022-10-01T06:15:32.340Z,3.28
2022-10-01T06:17:33.983Z,3.13
2022-10-01T06:19:35.687Z,3.42
2022-10-01T06:21:37.852Z,3.53
2022-10-01T06:23:39.654Z,4.45
2022-10-01T06:25:42.186Z,4.20
2022-10-01T06:27:43.965Z,5.43
2022-10-01T06:29:45.725Z,6.07
2022-10-01T06:31:47.416Z,6.93
2022-10-01T06:33:49.247Z,8.52
2022-10-01T06:35:51.581Z,8.05
2022-10-01T06:37:53.279Z,8.73
2022-10-01T06:39:54.942Z,8.90
2022-10-01T06:41:56.659Z,10.00
2022-10-01T06:43:58.359Z,8.82
2022-10-01T06:46:04.311Z,8.95
2022-10-01T06:48:06.188Z,9.10
2022-10-01T06:50:08.400Z,9.48
2022-10-01T06:52:10.257Z,9.68
2022-10-01T06:54:12.116Z,9.75
2022-10-01T06:56:13.876Z,9.95
2022-10-01T06:58:17.771Z,9.65
2022-10-01T07:00:21.530Z,8.68
2022-10-01T07:02:24.574Z,8.65
2022-10-01T07:04:26.371Z,8.98
2022-10-01T07:06:28.156Z,9.38
2022-10-01T07:08:29.876Z,9.30
2022-10-01T07:10:31.646Z,8.43
2022-10-01T07:12:34.461Z,8.18
2022-10-01T07:14:36.242Z,8.15
2022-10-01T07:16:38.494Z,9.20
2022-10-01T07:18:40.276Z,8.50
2022-10-01T07:20:41.950Z,8.43
2022-10-01T07:22:44.332Z,7.75
2022-10-01T07:24:46.562Z,8.27
2022-10-01T07:26:48.221Z,8.23
2022-10-01T07:28:49.940Z,7.97
2022-10-01T07:31:02.476Z,8.40
2022-10-01T07:33:04.161Z,8.07
2022-10-01T07:35:06.260Z,7.82
2022-10-01T07:37:08.320Z,7.13
2022-10-01T07:39:10.073Z,7.80
2022-10-01T07:41:11.818Z,7.63
2022-10-01T07:43:13.491Z,7.97
2022-10-01T07:45:15.208Z,7.50
2022-10-01T07:47:16.933Z,7.82
2022-10-01T07:49:18.585Z,7.63
2022-10-01T07:51:20.240Z,7.88
2022-10-01T07:53:23.742Z,7.47
2022-10-01T07:55:26.473Z,7.57
2022-10-01T07:57:28.158Z,6.65
2022-10-01T07:59:29.916Z,7.57
2022-10-01T08:01:32.193Z,6.82
2022-10-01T08:03:34.250Z,7.70
2022-10-01T08:05:36.163Z,6.93
2022-10-01T08:07:38.006Z,6.20
2022-10-01T08:09:39.693Z,7.70
2022-10-01T08:11:41.512Z,7.13
2022-10-01T08:13:43.667Z,7.53
2022-10-01T08:15:46.844Z,6.90
2022-10-01T08:17:48.550Z,7.40
2022-10-01T08:19:50.267Z,6.82
2022-10-01T08:21:51.980Z,6.60
2022-10-01T08:23:53.734Z,7.28
2022-10-01T08:26:03.686Z,6.93
2022-10-01T08:28:06.169Z,7.07
2022-10-01T08:30:08.695Z,7.78
2022-10-01T08:32:10.889Z,7.38
2022-10-01T08:34:12.679Z,7.90
2022-10-01T08:36:14.456Z,7.40
2022-10-01T08:38:16.418Z,6.95
2022-10-01T08:40:18.908Z,7.03
2022-10-01T08:42:41.233Z,8.13
2022-10-01T08:44:44.081Z,7.20
2022-10-01T08:46:45.833Z,7.68
2022-10-01T08:48:57.536Z,7.40
2022-10-01T08:51:10.569Z,7.82
2022-10-01T08:53:18.552Z,7.18
2022-10-01T08:55:24.967Z,7.40
2022-10-01T08:57:32.154Z,7.35
2022-10-01T08:59:41.084Z,7.43
2022-10-01T09:01:42.830Z,6.60
2022-10-01T09:03:44.554Z,7.53
2022-10-01T09:05:51.803Z,7.07
2022-10-01T09:08:35.096Z,7.13
2022-10-01T09:10:53.699Z,6.97
2022-10-01T09:13:08.870Z,7.03
2022-10-01T09:15:38.627Z,7.38
2022-10-01T09:18:01.806Z,6.97
2022-10-01T09:20:17.448Z,6.43
2022-10-01T09:22:30.844Z,6.55
2022-10-01T09:24:46.992Z,6.80
2022-10-01T09:26:48.689Z,6.68
2022-10-01T09:28:50.842Z,6.68
2022-10-01T09:31:24.417Z,6.40
2022-10-01T09:33:41.066Z,6.68
2022-10-01T09:35:46.642Z,7.15
2022-10-01T09:38:11.580Z,6.90
2022-10-01T09:40:35.207Z,6.43
2022-10-01T09:42:36.801Z,6.57
2022-10-01T09:44:38.458Z,7.18
2022-10-01T09:46:40.105Z,6.00
2022-10-01T09:49:03.537Z,6.00
2022-10-01T09:51:19.173Z,6.65
2022-10-01T09:53:22.600Z,6.57
2022-10-01T09:55:37.705Z,6.60
2022-10-01T09:57:42.691Z,5.82
2022-10-01T10:00:11.713Z,6.05
2022-10-01T10:02:20.794Z,6.95
2022-10-01T10:04:23.099Z,6.03
2022-10-01T10:06:26.848Z,6.25
2022-10-01T10:08:35.920Z,6.03
2022-10-01T10:10:38.567Z,6.47
2022-10-01T10:12:40.206Z,6.88
2022-10-01T10:14:41.947Z,6.47
2022-10-01T10:16:46.355Z,6.28
2022-10-01T10:18:48.892Z,6.18
2022-10-01T10:20:51.978Z,6.10
2022-10-01T10:22:53.727Z,6.38
2022-10-01T10:24:55.910Z,5.80
2022-10-01T10:26:58.476Z,6.65
2022-10-01T10:29:01.183Z,6.10
2022-10-01T10:31:02.921Z,6.32
2022-10-01T10:33:05.539Z,6.13
2022-10-01T10:35:11.901Z,6.85
2022-10-01T10:37:14.972Z,6.28
2022-10-01T10:39:22.016Z,6.05
2022-10-01T10:41:23.749Z,6.45
2022-10-01T10:43:36.698Z,6.45
2022-10-01T10:45:38.393Z,5.80
2022-10-01T10:47:50.553Z,6.57
2022-10-01T10:49:57.049Z,6.65
2022-10-01T10:51:59.466Z,6.75
2022-10-01T10:54:01.109Z,6.30
2022-10-01T10:56:04.169Z,5.75
2022-10-01T10:58:13.842Z,6.80
2022-10-01T11:00:23.460Z,6.25
2022-10-01T11:02:25.454Z,6.18
2022-10-01T11:04:46.396Z,6.28
2022-10-01T11:06:58.621Z,6.40
2022-10-01T11:09:04.456Z,6.38
2022-10-01T11:11:42.738Z,6.40
2022-10-01T11:14:24.140Z,6.28
2022-10-01T11:16:37.091Z,5.93
2022-10-01T11:18:57.046Z,6.10
2022-10-01T11:21:35.957Z,6.00
2022-10-01T11:24:00.549Z,6.45
2022-10-01T11:26:23.285Z,6.03
2022-10-01T11:28:54.166Z,5.57
2022-10-01T11:31:21.528Z,6.45
2022-10-01T11:33:41.492Z,6.35
2022-10-01T11:35:52.199Z,6.47
2022-10-01T11:37:57.217Z,6.07
2022-10-01T11:39:59.538Z,6.63
2022-10-01T11:42:19.529Z,6.15
2022-10-01T11:44:42.447Z,6.63
2022-10-01T11:47:14.241Z,6.55
2022-10-01T11:49:21.623Z,7.07
2022-10-01T11:51:27.388Z,6.40
2022-10-01T11:53:31.487Z,6.70
2022-10-01T11:55:53.413Z,6.60
2022-10-01T11:57:57.718Z,6.40
2022-10-01T12:02:15.700Z,5.90
2022-10-01T12:04:22.761Z,6.70
2022-10-01T12:06:29.390Z,6.00
2022-10-01T12:08:33.435Z,6.50
2022-10-01T12:10:39.305Z,6.38
2022-10-01T12:12:55.622Z,6.47
2022-10-01T12:15:06.949Z,7.03
2022-10-01T12:17:21.229Z,6.47
2022-10-01T12:19:31.559Z,6.03
2022-10-01T12:21:46.408Z,7.03
2022-10-01T12:23:55.736Z,6.97
2022-10-01T12:26:03.863Z,6.80
2022-10-01T12:28:19.820Z,6.57
2022-10-01T12:30:23.033Z,6.28
2022-10-01T12:32:38.063Z,6.45
2022-10-01T12:34:53.992Z,6.68
2022-10-01T12:37:14.846Z,6.82
2022-10-01T12:39:45.247Z,6.10
2022-10-01T12:41:49.899Z,6.38
2022-10-01T12:44:06.826Z,6.00
2022-10-01T12:46:11.649Z,6.45
2022-10-01T12:48:48.266Z,6.20
2022-10-01T12:51:16.010Z,6.05
2022-10-01T12:53:44.071Z,6.32
2022-10-01T12:55:54.621Z,6.10
2022-10-01T12:58:17.212Z,6.30
2022-10-01T13:00:20.721Z,5.88
2022-10-01T13:02:59.964Z,5.83
2022-10-01T13:05:39.158Z,5.75
2022-10-01T13:08:04.857Z,6.00
2022-10-01T13:10:28.233Z,5.80
2022-10-01T13:12:56.724Z,5.65
2022-10-01T13:14:58.532Z,6.07
2022-10-01T13:17:06.352Z,5.95
2022-10-01T13:19:29.158Z,5.78
2022-10-01T13:21:48.892Z,5.60
2022-10-01T13:23:56.299Z,6.30
2022-10-01T13:26:00.645Z,5.60
2022-10-01T13:30:18.378Z,5.57
2022-10-01T13:32:52.054Z,5.70
2022-10-01T13:34:54.223Z,5.75
2022-10-01T13:36:55.891Z,5.60
2022-10-01T13:38:57.716Z,5.55
2022-10-01T13:41:03.726Z,5.80
2022-10-01T13:43:19.758Z,5.65
2022-10-01T13:45:39.216Z,5.43
2022-10-01T13:47:40.968Z,5.03
2022-10-01T13:49:42.751Z,4.95
2022-10-01T13:51:44.922Z,5.55
2022-10-01T13:53:53.310Z,5.55
2022-10-01T13:55:55.256Z,5.80
2022-10-01T13:58:04.784Z,4.93
2022-10-01T14:00:12.683Z,4.97
2022-10-01T14:02:34.577Z,4.95
2022-10-01T14:04:38.765Z,5.00
2022-10-01T14:06:53.245Z,4.75
2022-10-01T14:09:11.357Z,5.40
2022-10-01T14:11:15.342Z,4.97
2022-10-01T14:13:21.486Z,4.68
2022-10-01T14:15:25.937Z,4.80
2022-10-01T14:17:31.979Z,4.82
2022-10-01T14:19:33.748Z,4.93
2022-10-01T14:21:59.887Z,4.93
2022-10-01T14:24:13.550Z,5.15
2022-10-01T14:26:44.255Z,4.97
2022-10-01T14:29:03.822Z,4.97
2022-10-01T14:31:23.777Z,4.88
2022-10-01T14:34:01.158Z,5.22
2022-10-01T14:36:21.291Z,4.75
2022-10-01T14:38:23.056Z,4.85
2022-10-01T14:40:25.365Z,4.85
2022-10-01T14:42:27.006Z,4.57
2022-10-01T14:44:31.646Z,5.00
2022-10-01T14:46:35.864Z,4.35
2022-10-01T14:48:37.915Z,4.80
2022-10-01T14:50:39.582Z,4.40
2022-10-01T14:52:41.440Z,4.80
2022-10-01T14:55:02.778Z,4.68
2022-10-01T14:57:12.140Z,4.32
2022-10-01T14:59:23.046Z,4.82
2022-10-01T15:01:24.737Z,4.60
2022-10-01T15:03:26.416Z,4.50
2022-10-01T15:05:30.069Z,4.78
2022-10-01T15:07:34.706Z,4.45
2022-10-01T15:09:36.651Z,4.15
2022-10-01T15:11:43.437Z,4.40
2022-10-01T15:13:46.769Z,4.78
2022-10-01T15:15:48.481Z,4.30
2022-10-01T15:17:50.130Z,4.30
2022-10-01T15:19:53.078Z,4.45
2022-10-01T15:21:58.618Z,4.25
2022-10-01T15:24:00.318Z,4.38
2022-10-01T15:26:02.901Z,4.60
2022-10-01T15:28:16.955Z,4.10
2022-10-01T15:30:19.034Z,4.20
2022-10-01T15:32:22.503Z,4.43
2022-10-01T15:34:25.017Z,4.20
2022-10-01T15:36:26.710Z,4.57
2022-10-01T15:38:29.202Z,4.18
2022-10-01T15:40:31.215Z,4.53
2022-10-01T15:42:36.113Z,4.57
2022-10-01T15:44:42.786Z,4.20
2022-10-01T15:46:44.755Z,4.30
2022-10-01T15:48:46.892Z,4.13
2022-10-01T15:50:48.907Z,4.10
2022-10-01T15:53:18.763Z,4.15
2022-10-01T15:55:26.704Z,3.88
2022-10-01T15:57:28.553Z,4.00
2022-10-01T15:59:30.247Z,3.80
2022-10-01T16:01:39.056Z,4.20
2022-10-01T16:03:52.713Z,3.78
2022-10-01T16:05:54.416Z,3.58
2022-10-01T16:07:57.249Z,3.83
2022-10-01T16:10:00.114Z,4.15
2022-10-01T16:12:11.034Z,4.32
2022-10-01T16:14:36.611Z,4.05
2022-10-01T16:16:38.546Z,3.95
2022-10-01T16:18:41.303Z,4.00
2022-10-01T16:20:45.586Z,4.32
2022-10-01T16:22:49.855Z,4.38
2022-10-01T16:25:02.190Z,4.15
2022-10-01T16:27:03.949Z,4.00
2022-10-01T16:29:07.157Z,4.05
2022-10-01T16:31:08.972Z,3.70
2022-10-01T16:33:10.905Z,4.20
2022-10-01T16:35:16.375Z,4.18
2022-10-01T16:37:18.082Z,4.40
2022-10-01T16:39:19.929Z,4.22
2022-10-01T16:41:24.116Z,3.75
2022-10-01T16:43:26.036Z,3.90
2022-10-01T16:45:35.548Z,3.83
2022-10-01T16:47:41.626Z,4.10
2022-10-01T16:49:43.473Z,4.05
2022-10-01T16:51:45.145Z,4.15
2022-10-01T16:53:46.903Z,4.15
2022-10-01T16:55:48.612Z,4.20
2022-10-01T16:57:50.832Z,4.13
2022-10-01T16:59:52.578Z,3.95
2022-10-01T17:01:54.873Z,4.05
2022-10-01T17:03:56.838Z,3.67
2022-10-01T17:05:58.473Z,4.20
2022-10-01T17:08:00.352Z,4.00
2022-10-01T17:10:02.267Z,4.15
2022-10-01T17:12:04.019Z,4.05
2022-10-01T17:14:06.546Z,4.15
2022-10-01T17:16:09.010Z,4.40
2022-10-01T17:18:10.920Z,4.47
2022-10-01T17:20:12.990Z,4.28
2022-10-01T17:22:14.659Z,3.90
2022-10-01T17:24:16.365Z,4.10
2022-10-01T17:26:18.153Z,4.38
2022-10-01T17:28:20.197Z,4.13
2022-10-01T17:30:22.171Z,4.30
2022-10-01T17:32:24.078Z,3.88
2022-10-01T17:34:25.807Z,4.53
2022-10-01T17:36:27.591Z,4.25
2022-10-01T17:38:29.606Z,4.18
2022-10-01T17:40:31.466Z,4.55
2022-10-01T17:42:33.312Z,4.68
2022-10-01T17:44:35.275Z,4.45
2022-10-01T17:46:37.101Z,4.97
2022-10-01T17:48:38.995Z,5.00
2022-10-01T17:50:41.044Z,4.45
2022-10-01T17:52:42.730Z,5.38
2022-10-01T17:54:44.697Z,5.05
2022-10-01T17:56:46.603Z,4.55
2022-10-01T17:58:48.758Z,5.03
2022-10-01T18:00:50.550Z,4.50
2022-10-01T18:02:52.635Z,4.75
2022-10-01T18:04:54.419Z,5.22
2022-10-01T18:06:59.555Z,5.18
2022-10-01T18:09:01.869Z,5.35
2022-10-01T18:11:07.874Z,5.00
2022-10-01T18:13:09.521Z,5.50
2022-10-01T18:15:11.756Z,5.45
2022-10-01T18:17:13.391Z,5.20
2022-10-01T18:21:37.090Z,5.32
2022-10-01T18:23:39.045Z,5.60
2022-10-01T18:25:41.043Z,5.63
2022-10-01T18:27:46.634Z,5.60
2022-10-01T18:29:48.444Z,5.25
2022-10-01T18:32:09.785Z,6.13
2022-10-01T18:34:22.180Z,5.10
2022-10-01T18:36:40.669Z,6.00
2022-10-01T18:38:42.414Z,5.80
2022-10-01T18:40:44.597Z,5.78
2022-10-01T18:42:47.226Z,5.60
2022-10-01T18:44:59.773Z,5.43
2022-10-01T18:47:04.444Z,5.97
2022-10-01T18:50:08.173Z,5.90
2022-10-01T18:52:27.743Z,5.60
2022-10-01T18:54:47.891Z,5.43
2022-10-01T18:56:57.627Z,5.07
2022-10-01T18:59:27.599Z,6.03
2022-10-01T19:01:40.889Z,5.70
2022-10-01T19:03:52.892Z,5.85
2022-10-01T19:06:27.003Z,5.80
2022-10-01T19:08:46.768Z,5.78
2022-10-01T19:11:17.787Z,6.18
2022-10-01T19:13:20.341Z,6.03
2022-10-01T19:15:45.413Z,5.93
2022-10-01T19:17:49.735Z,6.13
2022-10-01T19:22:22.487Z,5.22
2022-10-01T19:25:08.593Z,5.90
2022-10-01T19:29:19.987Z,5.82
2022-10-01T19:31:36.466Z,5.63
2022-10-01T19:33:45.097Z,5.93
2022-10-01T19:35:51.987Z,6.03
2022-10-01T19:37:57.050Z,5.65
2022-10-01T19:40:03.151Z,5.60
2022-10-01T19:42:31.462Z,5.90
2022-10-01T19:44:54.728Z,6.35
2022-10-01T19:47:01.056Z,5.47
2022-10-01T19:49:41.881Z,5.68
2022-10-01T19:51:46.654Z,6.13
2022-10-01T19:53:50.960Z,5.50
2022-10-01T19:57:54.325Z,5.43
2022-10-01T20:00:01.289Z,6.20
2022-10-01T20:02:15.184Z,5.45
2022-10-01T20:04:37.808Z,5.63
2022-10-01T20:06:40.205Z,5.50
2022-10-01T20:08:47.979Z,4.95
2022-10-01T20:10:59.449Z,5.28
2022-10-01T20:13:15.828Z,5.38
2022-10-01T20:15:46.599Z,4.88
2022-10-01T20:18:15.581Z,5.07
2022-10-01T20:20:21.738Z,5.40
2022-10-01T20:22:37.829Z,5.13
2022-10-01T20:24:59.917Z,5.20
2022-10-01T20:27:55.275Z,4.75
2022-10-01T20:30:19.520Z,4.95
2022-10-01T20:32:30.445Z,5.25
2022-10-01T20:34:50.600Z,4.80
2022-10-01T20:37:31.788Z,5.28
2022-10-01T20:39:36.085Z,4.72
2022-10-01T20:43:51.880Z,4.72
2022-10-01T20:45:53.555Z,4.95
2022-10-01T20:48:03.968Z,4.25
2022-10-01T20:50:31.663Z,4.70
2022-10-01T20:52:38.804Z,4.75
2022-10-01T20:54:44.339Z,4.90
2022-10-01T20:57:00.019Z,4.78
2022-10-01T20:59:16.945Z,4.40
2022-10-01T21:01:23.082Z,4.40
2022-10-01T21:03:32.533Z,4.30
2022-10-01T21:05:46.490Z,4.10
2022-10-01T21:08:04.942Z,4.60
2022-10-01T21:10:17.137Z,4.30
2022-10-01T21:12:28.505Z,4.35
2022-10-01T21:14:48.882Z,3.78
2022-10-01T21:16:53.507Z,4.40
2022-10-01T21:19:07.384Z,4.40
2022-10-01T21:21:27.921Z,4.30
2022-10-01T21:23:55.171Z,4.43
2022-10-01T21:26:32.726Z,4.22
2022-10-01T21:29:02.923Z,3.83
2022-10-01T21:31:09.171Z,3.75
2022-10-01T21:33:14.494Z,4.20
2022-10-01T21:35:30.822Z,4.07
2022-10-01T21:37:41.830Z,3.75
2022-10-01T21:39:47.440Z,3.85
2022-10-01T21:42:08.337Z,3.63
2022-10-01T21:44:28.295Z,3.80
2022-10-01T21:46:50.267Z,3.50
2022-10-01T21:49:15.209Z,3.78
2022-10-01T21:51:18.591Z,3.80
2022-10-01T21:53:43.342Z,3.45
2022-10-01T21:55:56.967Z,3.80
2022-10-01T21:58:23.467Z,3.80
2022-10-01T22:00:25.556Z,3.58
2022-10-01T22:02:39.293Z,3.90
2022-10-01T22:04:52.499Z,3.38
2022-10-01T22:07:02.081Z,3.55
2022-10-01T22:09:12.692Z,3.88
2022-10-01T22:11:19.514Z,3.78
2022-10-01T22:13:22.996Z,3.60
2022-10-01T22:15:37.386Z,3.50
2022-10-01T22:17:39.110Z,3.70
2022-10-01T22:19:44.733Z,3.70
2022-10-01T22:21:48.347Z,3.92
2022-10-01T22:23:54.836Z,3.72
2022-10-01T22:25:58.078Z,3.65
2022-10-01T22:28:04.718Z,3.72
2022-10-01T22:30:09.409Z,4.00
2022-10-01T22:32:11.814Z,3.42
2022-10-01T22:34:16.899Z,3.30
2022-10-01T22:36:40.347Z,3.47
2022-10-01T22:38:52.759Z,3.42
2022-10-01T22:41:05.202Z,3.42
2022-10-01T22:43:11.112Z,3.30
2022-10-01T22:45:14.176Z,3.90
2022-10-01T22:47:18.577Z,3.10
2022-10-01T22:49:57.547Z,3.53
2022-10-01T22:52:14.857Z,3.08
2022-10-01T22:54:22.168Z,3.40
2022-10-01T22:56:44.050Z,3.10
2022-10-01T22:59:02.409Z,3.13
2022-10-01T23:01:46.556Z,3.20
2022-10-01T23:04:05.990Z,3.20
2022-10-01T23:06:19.649Z,2.58
2022-10-01T23:08:30.075Z,2.95
2022-10-01T23:10:59.212Z,2.65
2022-10-01T23:13:09.674Z,2.70
2022-10-01T23:15:11.589Z,2.35
2022-10-01T23:17:27.083Z,2.65
2022-10-01T23:19:56.452Z,2.60
2022-10-01T23:21:58.055Z,2.67
2022-10-01T23:24:18.091Z,2.45
2022-10-01T23:26:39.925Z,2.38
2022-10-01T23:28:59.720Z,2.47
2022-10-01T23:31:13.256Z,2.45
2022-10-01T23:33:51.579Z,2.60
2022-10-01T23:35:59.232Z,2.15
2022-10-01T23:38:18.951Z,2.72
2022-10-01T23:40:21.593Z,2.40
2022-10-01T23:42:41.423Z,2.42
2022-10-01T23:45:14.690Z,2.63
2022-10-01T23:47:38.508Z,2.55
2022-10-01T23:49:49.965Z,2.63
2022-10-01T23:51:55.969Z,2.35
2022-10-01T23:54:21.740Z,2.40
2022-10-01T23:56:25.036Z,2.20
2022-10-01T23:58:26.905Z,2.17
